Time;durP1;ratioP1;P1;durP2;ratioP2;P2;SDS_P1;SDS_P2;PMS_P1;PMS_P2;Temp;Humidity;BMP_temperature;BMP_pressure;BME280_temperature;BME280_humidity;BME280_pressure;Samples;Min_cycle;Max_cycle;Signal;HPM_P1;HPM_P2
2022/05/19 00:02:11;;;;;;;2.67;1.80;;;24.30;48.80;;;24.79;35.25;99072.31;4973476;28;124295;-88
2022/05/19 00:04:39;;;;;;;2.20;2.00;;;24.20;48.90;;;24.75;35.44;99071.50;4954400;28;118614;-89
2022/05/19 00:07:06;;;;;;;1.97;1.53;;;24.20;49.10;;;24.71;35.56;99071.47;4965135;28;119479;-89
2022/05/19 00:09:34;;;;;;;2.30;1.87;;;24.20;49.30;;;24.66;35.65;99067.06;4989454;28;124112;-89
2022/05/19 00:12:07;;;;;;;2.67;1.90;;;24.20;49.40;;;24.60;35.82;99074.28;4978033;28;123774;-88
2022/05/19 00:14:33;;;;;;;2.40;1.97;;;24.10;49.50;;;24.54;36.08;99063.78;4937517;28;118820;-89
2022/05/19 00:17:00;;;;;;;2.20;2.00;;;24.10;49.70;;;24.50;36.22;99071.44;4959557;28;118037;-88
2022/05/19 00:19:26;;;;;;;2.40;1.67;;;24.00;49.70;;;24.44;36.22;99056.91;4950724;28;124136;-89
2022/05/19 00:21:54;;;;;;;3.43;1.87;;;24.00;49.90;;;24.38;36.30;99058.47;4966275;28;122638;-88
2022/05/19 00:24:20;;;;;;;4.60;1.50;;;23.90;50.00;;;24.32;36.53;99060.06;4956007;28;118642;-89
2022/05/19 00:26:47;;;;;;;2.77;1.90;;;23.80;50.10;;;24.27;36.48;99054.81;4963113;28;118080;-88
2022/05/19 00:29:14;;;;;;;2.10;1.90;;;23.80;50.20;;;24.23;36.60;99051.97;4976695;28;123147;-87
2022/05/19 00:31:41;;;;;;;2.33;1.70;;;23.70;50.20;;;24.19;36.49;99049.13;4983712;28;123840;-88
2022/05/19 00:34:07;;;;;;;2.20;2.00;;;23.70;50.40;;;24.16;36.62;99052.75;4948701;28;119401;-88
2022/05/19 00:36:34;;;;;;;2.00;1.80;;;23.60;50.40;;;24.13;36.88;99047.09;4965520;28;119353;-88
2022/05/19 00:39:01;;;;;;;1.60;1.50;;;23.60;50.60;;;24.08;36.87;99047.47;4960515;28;124054;-89
2022/05/19 00:41:27;;;;;;;1.67;1.57;;;23.60;50.70;;;24.04;36.98;99044.63;4984218;28;123649;-88
2022/05/19 00:44:05;;;;;;;1.80;1.60;;;23.50;50.80;;;24.00;36.83;99038.19;4980527;28;120149;-89
2022/05/19 00:46:57;;;;;;;4.30;1.80;;;23.50;50.90;;;23.96;37.33;99032.50;4964635;28;120003;-86
2022/05/19 00:49:36;;;;;;;1.83;1.70;;;23.40;50.90;;;23.93;37.05;99027.66;4983038;28;124042;-87
2022/05/19 00:52:38;;;;;;;3.70;1.87;;;23.40;51.00;;;23.88;37.05;99035.69;4966351;28;123638;-87
2022/05/19 00:55:11;;;;;;;1.90;1.53;;;23.40;51.30;;;23.86;37.17;99038.09;4975246;28;119143;-87
2022/05/19 00:57:43;;;;;;;2.30;2.03;;;23.30;51.10;;;23.81;37.18;99031.63;4988476;28;119446;-88
2022/05/19 01:00:17;;;;;;;1.97;1.70;;;23.30;51.20;;;23.79;37.24;99042.50;4999265;28;124566;-88
2022/05/19 01:02:52;;;;;;;2.40;1.90;;;23.30;51.20;;;23.77;37.30;99030.00;4991401;28;123867;-88
2022/05/19 01:05:48;;;;;;;1.63;1.53;;;23.20;51.20;;;23.72;37.20;99028.38;4980632;28;119421;-88
2022/05/19 01:08:24;;;;;;;2.13;1.93;;;23.20;51.30;;;23.69;37.46;99029.13;4985295;28;118461;-89
2022/05/19 01:10:53;;;;;;;2.37;1.73;;;23.20;51.50;;;23.64;37.59;99025.88;4997224;28;124086;-89
2022/05/19 01:13:21;;;;;;;2.40;1.80;;;23.10;51.50;;;23.62;37.51;99022.66;4999404;28;123627;-88
2022/05/19 01:15:52;;;;;;;1.90;1.53;;;23.10;51.60;;;23.56;37.64;99023.03;4967695;28;119547;-89
2022/05/19 01:18:20;;;;;;;2.67;2.00;;;23.10;51.70;;;23.53;37.64;99023.00;4966225;28;118124;-89
2022/05/19 01:20:47;;;;;;;3.10;1.80;;;23.00;51.70;;;23.49;37.99;99016.53;4997859;28;123438;-89
2022/05/19 01:23:26;;;;;;;1.93;1.70;;;23.00;51.90;;;23.46;38.09;99020.16;4966142;28;125041;-88
2022/05/19 01:25:58;;;;;;;3.20;1.70;;;23.00;52.00;;;23.43;38.20;99027.38;4967282;28;119012;-89
2022/05/19 01:28:25;;;;;;;2.23;1.70;;;22.90;52.10;;;23.40;38.09;99027.34;4967725;28;119109;-89
2022/05/19 01:30:53;;;;;;;1.90;1.70;;;22.90;52.30;;;23.36;38.31;99022.50;4982553;28;123351;-89
2022/05/19 01:33:20;;;;;;;2.07;1.80;;;22.80;52.30;;;23.32;38.36;99016.03;4960984;28;122857;-88
2022/05/19 01:35:47;;;;;;;2.50;1.73;;;22.80;52.40;;;23.29;38.33;99016.81;4990722;28;120198;-88
2022/05/19 01:38:34;;;;;;;1.63;1.53;;;22.80;52.60;;;23.24;38.54;99013.53;4947147;28;120266;-88
2022/05/19 01:41:16;;;;;;;3.47;2.53;;;22.70;52.60;;;23.20;38.65;99019.16;4953857;28;124424;-87
2022/05/19 01:44:03;;;;;;;2.17;1.70;;;22.60;52.70;;;23.15;38.56;99017.50;4974156;28;123503;-88
2022/05/19 01:46:36;;;;;;;1.93;1.83;;;22.60;52.90;;;23.10;38.81;99012.25;4956172;28;119092;-89
2022/05/19 01:49:41;;;;;;;2.47;2.27;;;22.50;53.00;;;23.07;38.84;99003.75;4981572;28;118860;-87
2022/05/19 01:52:28;;;;;;;1.77;1.67;;;22.50;53.20;;;23.01;39.11;99005.34;4960510;28;123788;-88
2022/05/19 01:55:08;;;;;;;1.70;1.60;;;22.50;53.40;;;22.98;39.41;99008.94;4947863;28;123941;-90
2022/05/19 01:58:04;;;;;;;1.90;1.70;;;22.40;53.50;;;22.94;38.85;99008.88;4959999;28;119972;-88
2022/05/19 02:00:32;;;;;;;2.27;2.07;;;22.40;53.60;;;22.91;39.39;99002.00;4962002;28;118948;-90
2022/05/19 02:03:05;;;;;;;1.80;1.70;;;22.40;53.70;;;22.87;39.33;99001.19;4982333;28;123826;-88
2022/05/19 02:06:04;;;;;;;1.70;1.60;;;22.30;53.80;;;22.83;39.44;99005.97;5000884;28;125482;-89
2022/05/19 02:08:41;;;;;;;2.00;1.80;;;22.30;53.80;;;22.80;39.47;99003.94;4966606;28;119050;-89
2022/05/19 02:11:16;;;;;;;2.77;1.80;;;22.20;53.90;;;22.78;39.64;98994.25;4981117;28;119000;-87
2022/05/19 02:13:44;;;;;;;2.20;1.90;;;22.30;54.10;;;22.74;39.64;99002.69;4982186;28;123799;-89
2022/05/19 02:16:14;;;;;;;2.40;2.00;;;22.20;54.10;;;22.70;39.85;99004.63;4953377;28;124217;-89
2022/05/19 02:18:42;;;;;;;2.07;1.87;;;22.20;54.20;;;22.64;39.79;99009.81;5002218;28;119295;-89
2022/05/19 02:21:10;;;;;;;1.63;1.53;;;22.10;54.30;;;22.61;39.76;99009.81;4969962;28;120039;-88
2022/05/19 02:23:41;;;;;;;3.13;2.20;;;22.10;54.30;;;22.56;39.91;99015.78;4966948;28;123522;-88
2022/05/19 02:26:08;;;;;;;2.00;1.80;;;22.10;54.40;;;22.52;40.03;99015.75;4961041;28;124319;-89
2022/05/19 02:29:00;;;;;;;3.07;2.23;;;22.00;54.40;;;22.46;39.91;99018.13;4983167;28;119251;-89
2022/05/19 02:31:27;;;;;;;2.90;1.93;;;22.00;54.50;;;22.43;40.13;99015.25;4956236;28;119681;-88
2022/05/19 02:33:54;;;;;;;1.90;1.70;;;21.90;54.60;;;22.41;40.10;99015.66;4966775;28;124245;-89
2022/05/19 02:36:20;;;;;;;3.33;2.07;;;21.90;54.70;;;22.39;40.42;99020.84;4965859;28;124451;-88
2022/05/19 02:38:47;;;;;;;1.70;1.60;;;21.90;54.80;;;22.39;40.36;99018.03;4969034;28;119316;-90
2022/05/19 02:41:13;;;;;;;1.93;1.73;;;21.80;54.80;;;22.37;40.38;99011.19;4965027;28;119080;-89
2022/05/19 02:43:40;;;;;;;2.07;1.80;;;21.80;54.80;;;22.36;40.48;99016.00;4981508;28;124032;-88
2022/05/19 02:46:07;;;;;;;2.10;1.90;;;21.80;54.90;;;22.33;40.30;99013.16;4965489;28;123853;-88
2022/05/19 02:48:33;;;;;;;3.37;1.73;;;21.80;55.00;;;22.31;40.18;99018.38;4965702;28;119418;-88
2022/05/19 02:51:00;;;;;;;1.67;1.57;;;21.80;55.10;;;22.27;40.47;99016.31;4964793;28;118840;-90
2022/05/19 02:53:27;;;;;;;1.80;1.70;;;21.70;55.10;;;22.22;40.46;99013.06;4965413;28;124109;-90
2022/05/19 02:55:54;;;;;;;1.70;1.57;;;21.70;55.20;;;22.21;40.65;99011.41;4981462;28;124279;-89
2022/05/19 02:58:20;;;;;;;2.30;1.87;;;21.60;55.30;;;22.17;40.46;99019.00;4965858;28;118250;-89
2022/05/19 03:00:49;;;;;;;1.80;1.60;;;21.60;55.40;;;22.15;40.60;99021.38;4983838;28;119387;-87
2022/05/19 03:03:17;;;;;;;1.70;1.60;;;21.60;55.50;;;22.11;40.65;99021.34;4987932;28;124320;-89
2022/05/19 03:05:43;;;;;;;1.97;1.80;;;21.60;55.60;;;22.10;40.94;99018.91;4948976;28;123759;-89
2022/05/19 03:08:10;;;;;;;2.03;1.83;;;21.50;55.60;;;22.05;41.25;99012.41;4966825;28;119160;-88
2022/05/19 03:10:40;;;;;;;2.70;1.43;;;23.60;57.60;;;22.01;40.96;99017.19;4981246;28;118134;-88
2022/05/19 03:13:14;;;;;;;1.63;1.53;;;21.50;55.90;;;21.98;41.35;99012.34;4958909;28;124096;-89
2022/05/19 03:15:41;;;;;;;2.27;1.80;;;21.40;55.90;;;21.97;41.40;99007.91;5000084;28;123833;-89
2022/05/19 03:18:08;;;;;;;1.90;1.80;;;21.40;56.00;;;21.95;41.17;99006.66;4968996;28;120253;-88
2022/05/19 03:20:35;;;;;;;2.10;1.70;;;21.40;56.10;;;21.92;41.19;99007.44;4966148;28;121866;-89
2022/05/19 03:23:04;;;;;;;2.20;1.73;;;21.40;56.10;;;21.88;41.09;98998.16;4966472;28;125155;-89
2022/05/19 03:25:32;;;;;;;2.23;1.80;;;21.40;56.20;;;21.86;41.16;99011.78;4969060;28;123743;-89
2022/05/19 03:27:58;;;;;;;1.70;1.60;;;21.30;56.20;;;21.84;41.10;99012.16;4971041;28;119586;-88
2022/05/19 03:30:25;;;;;;;2.10;1.90;;;21.30;56.20;;;21.81;41.31;99015.72;4969841;28;118223;-89
2022/05/19 03:32:52;;;;;;;2.60;1.63;;;21.30;56.20;;;21.78;41.46;99017.31;4985795;28;124553;-88
2022/05/19 03:35:19;;;;;;;2.80;2.10;;;21.20;56.10;;;21.75;40.82;99017.28;4968864;28;124390;-90
2022/05/19 03:37:45;;;;;;;2.00;1.80;;;21.20;56.00;;;21.72;41.22;99016.03;4974952;28;120337;-88
2022/05/19 03:40:16;;;;;;;1.83;1.73;;;21.20;56.00;;;21.71;40.88;99016.41;4965853;28;119043;-89
2022/05/19 03:42:42;;;;;;;2.33;1.83;;;21.10;56.00;;;21.69;41.18;99010.38;4965097;28;124091;-89
2022/05/19 03:45:10;;;;;;;2.33;1.87;;;21.10;56.00;;;21.66;40.93;99022.38;4965890;28;124379;-88
2022/05/19 03:47:37;;;;;;;3.30;1.80;;;21.10;56.00;;;21.64;41.31;99013.53;4956525;28;119349;-89
2022/05/19 03:50:04;;;;;;;1.73;1.63;;;21.00;55.90;;;21.62;40.91;99017.50;4949335;28;119459;-90
2022/05/19 03:52:31;;;;;;;3.00;1.93;;;21.00;56.60;;;21.60;41.35;99008.66;4968204;28;124581;-91
2022/05/19 03:54:57;;;;;;;3.07;1.67;;;21.00;55.90;;;21.57;41.24;99015.06;4965168;28;123825;-91
2022/05/19 03:57:25;;;;;;;2.07;1.70;;;21.00;56.00;;;21.56;40.96;99013.41;4965134;28;119277;-88
2022/05/19 03:59:51;;;;;;;1.87;1.77;;;21.00;56.00;;;21.56;40.94;99015.41;4946980;28;118991;-88
2022/05/19 04:02:18;;;;;;;2.17;1.60;;;20.90;55.90;;;21.57;41.21;99019.84;4964186;28;124166;-88
2022/05/19 04:04:44;;;;;;;1.67;1.57;;;20.90;56.00;;;21.56;41.10;99019.03;4967926;28;122896;-88
2022/05/19 04:07:13;;;;;;;1.63;1.50;;;20.90;56.00;;;21.53;41.04;99019.81;4950218;28;96788;-89
2022/05/19 04:09:39;;;;;;;2.00;1.80;;;20.90;56.00;;;21.51;41.07;99019.38;4962864;28;120443;-90
2022/05/19 04:12:07;;;;;;;2.53;1.90;;;20.90;55.90;;;21.49;40.99;99018.94;4967769;28;124692;-88
2022/05/19 04:14:34;;;;;;;1.70;1.60;;;20.90;56.00;;;21.48;40.79;99016.50;4971239;28;123730;-89
2022/05/19 04:17:03;;;;;;;2.77;1.80;;;20.90;56.10;;;21.46;40.99;99019.69;4979843;28;119634;-88
2022/05/19 04:19:29;;;;;;;2.00;1.70;;;20.90;56.10;;;21.45;41.30;99015.28;4971938;28;118932;-89
2022/05/19 04:21:56;;;;;;;1.90;1.70;;;20.90;56.10;;;21.43;41.02;99020.47;4968636;28;124089;-89
2022/05/19 04:24:22;;;;;;;1.70;1.60;;;20.90;56.10;;;21.43;41.01;99020.47;4968953;28;124028;-90
2022/05/19 04:26:49;;;;;;;2.40;1.90;;;20.90;56.20;;;21.44;41.30;99027.72;4970402;28;118506;-88
2022/05/19 04:29:15;;;;;;;1.73;1.50;;;20.90;56.20;;;21.43;40.96;99028.88;4968442;28;119634;-88
2022/05/19 04:31:42;;;;;;;1.70;1.60;;;20.80;56.00;;;21.43;40.75;99030.91;4968225;28;123432;-89
2022/05/19 04:34:08;;;;;;;1.80;1.50;;;20.90;56.10;;;21.43;41.06;99031.69;4968836;28;123974;-89
2022/05/19 04:36:35;;;;;;;1.80;1.50;;;20.80;55.90;;;21.45;40.95;99028.53;4968524;28;119258;-88
2022/05/19 04:39:02;;;;;;;2.20;1.70;;;20.80;55.70;;;21.44;40.68;99050.22;4968845;28;119071;-89
2022/05/19 04:41:29;;;;;;;3.00;1.50;;;20.90;56.30;;;21.45;40.64;99051.00;4970847;28;123837;-90
2022/05/19 04:43:56;;;;;;;3.10;1.87;;;20.80;55.50;;;21.48;40.47;99047.44;4968334;28;124246;-89
2022/05/19 04:46:22;;;;;;;1.97;1.47;;;20.80;55.50;;;21.50;40.58;99051.50;4967642;28;119252;-88
2022/05/19 04:48:49;;;;;;;3.20;1.80;;;20.90;55.60;;;21.53;40.33;99053.53;4968500;28;118621;-89
2022/05/19 04:51:15;;;;;;;3.13;1.80;;;20.90;55.50;;;21.55;40.60;99045.53;4966821;28;124089;-89
2022/05/19 04:53:42;;;;;;;1.90;1.70;;;20.90;55.60;;;21.57;40.43;99047.97;4970879;28;124932;-87
2022/05/19 04:56:08;;;;;;;4.50;2.47;;;20.90;55.60;;;21.59;40.48;99048.41;5001250;28;119494;-88
2022/05/19 04:58:35;;;;;;;2.30;1.90;;;20.90;55.80;;;21.58;40.41;99047.59;4965302;28;119884;-87
2022/05/19 05:01:04;;;;;;;3.20;2.10;;;20.90;55.90;;;21.61;40.80;99048.84;4967356;28;123422;-88
2022/05/19 05:03:30;;;;;;;3.63;2.13;;;20.90;56.00;;;21.62;40.85;99042.81;4966234;28;123964;-88
2022/05/19 05:05:57;;;;;;;2.03;1.83;;;21.00;56.20;;;21.64;40.47;99052.88;4970943;28;119284;-86
2022/05/19 05:08:23;;;;;;;2.30;1.83;;;21.00;56.10;;;21.67;40.63;99052.94;4982006;28;119360;-88
2022/05/19 05:10:50;;;;;;;2.10;1.90;;;21.00;56.10;;;21.71;40.51;99062.25;4968173;28;123216;-88
2022/05/19 05:13:17;;;;;;;2.57;2.00;;;21.00;56.20;;;21.77;40.50;99057.88;4951017;28;124376;-88
2022/05/19 05:15:44;;;;;;;2.50;1.63;;;21.10;56.30;;;21.82;40.82;99059.56;4946368;28;119474;-88
2022/05/19 05:18:11;;;;;;;1.80;1.60;;;21.20;56.40;;;21.89;40.49;99064.47;4945952;28;118721;-88
2022/05/19 05:20:42;;;;;;;2.30;1.83;;;21.20;56.40;;;21.92;40.56;99063.69;4950692;28;124088;-88
2022/05/19 05:23:10;;;;;;;2.80;1.83;;;23.70;58.20;;;21.92;40.11;99070.13;4949944;28;122808;-89
2022/05/19 05:25:37;;;;;;;3.20;2.50;;;21.30;55.70;;;21.90;40.29;99066.91;4949136;28;119197;-88
2022/05/19 05:28:04;;;;;;;1.90;1.70;;;21.30;55.40;;;21.90;40.12;99072.53;4977529;28;118885;-88
2022/05/19 05:30:31;;;;;;;1.87;1.50;;;21.30;55.40;;;21.92;39.99;99070.13;4951513;28;123493;-88
2022/05/19 05:33:10;;;;;;;3.60;2.20;;;21.30;55.70;;;21.94;39.95;99075.38;4953364;28;123768;-88
2022/05/19 05:35:37;;;;;;;2.60;1.73;;;21.30;55.00;;;21.98;39.68;99068.63;4955748;28;119618;-89
2022/05/19 05:38:03;;;;;;;1.93;1.70;;;21.40;55.10;;;22.04;39.78;99069.09;4957254;28;119043;-87
2022/05/19 05:40:30;;;;;;;2.47;1.90;;;21.30;54.90;;;22.06;39.69;99059.06;4951644;28;124198;-87
2022/05/19 05:43:12;;;;;;;1.93;1.73;;;21.40;54.90;;;22.10;39.28;99053.47;4945267;28;124189;-85
2022/05/19 05:45:40;;;;;;;4.23;2.10;;;21.50;54.90;;;22.14;39.26;99048.72;4962362;28;120762;-87
2022/05/19 05:48:07;;;;;;;2.40;2.03;;;21.50;54.90;;;22.18;39.20;99052.41;4947755;28;119275;-89
2022/05/19 05:50:34;;;;;;;3.03;2.40;;;21.50;54.90;;;22.23;39.14;99048.44;4954745;28;123429;-87
2022/05/19 05:53:01;;;;;;;2.20;2.00;;;21.50;54.90;;;22.29;39.44;99052.50;4951381;28;123724;-89
2022/05/19 05:55:28;;;;;;;2.20;2.00;;;21.60;54.90;;;22.35;39.62;99053.78;4936522;28;119188;-88
2022/05/19 05:57:54;;;;;;;2.20;1.80;;;21.60;55.00;;;22.40;39.61;99050.63;4951263;28;118873;-88
2022/05/19 06:00:22;;;;;;;4.00;2.33;;;21.70;55.10;;;22.42;39.15;99059.50;4948665;28;123835;-88
2022/05/19 06:02:51;;;;;;;2.90;2.23;;;21.70;54.90;;;22.45;39.13;99057.91;4950391;28;124534;-89
2022/05/19 06:05:19;;;;;;;2.70;2.20;;;21.80;54.80;;;22.49;39.24;99058.78;4947333;28;117240;-87
2022/05/19 06:07:45;;;;;;;5.10;2.07;;;21.70;54.70;;;22.53;39.08;99058.81;4948894;28;117630;-88
2022/05/19 06:10:14;;;;;;;2.07;1.87;;;21.90;54.70;;;22.59;39.07;99062.88;4979784;28;123772;-89
2022/05/19 06:12:42;;;;;;;2.17;1.70;;;21.90;54.60;;;22.65;38.81;99064.19;4954311;28;124523;-88
2022/05/19 06:15:12;;;;;;;1.80;1.70;;;22.00;54.60;;;22.69;38.62;99059.38;4963841;28;118862;-87
2022/05/19 06:17:41;;;;;;;2.90;2.00;;;22.00;54.50;;;22.76;38.85;99055.84;4980320;28;119443;-88
2022/05/19 06:20:15;;;;;;;4.07;2.17;;;22.10;54.40;;;22.81;38.54;99055.44;4950581;28;124043;-88
2022/05/19 06:22:43;;;;;;;2.20;1.67;;;22.20;54.50;;;22.83;38.79;99056.69;4970753;28;123989;-89
2022/05/19 06:25:18;;;;;;;2.43;1.70;;;22.10;54.40;;;22.87;38.74;99057.53;4961925;28;118629;-89
2022/05/19 06:27:45;;;;;;;1.80;1.70;;;22.20;54.30;;;22.93;38.59;99053.16;4954067;28;118441;-88
2022/05/19 06:30:13;;;;;;;2.43;1.73;;;22.30;54.50;;;22.97;38.41;99061.69;4954252;28;123370;-89
2022/05/19 06:32:44;;;;;;;4.23;2.10;;;22.30;54.40;;;23.01;38.65;99054.06;4966227;28;124269;-89
2022/05/19 06:35:14;;;;;;;2.37;2.10;;;22.40;54.50;;;23.06;38.76;99058.53;4986045;28;119270;-90
2022/05/19 06:37:41;;;;;;;2.33;1.73;;;22.40;54.40;;;23.13;38.83;99069.84;4952253;28;119033;-88
2022/05/19 06:40:09;;;;;;;2.17;1.97;;;22.50;54.50;;;23.19;38.47;99065.47;4947372;28;123997;-87
2022/05/19 06:42:37;;;;;;;2.23;1.70;;;22.50;54.50;;;23.29;38.49;99064.75;4951597;28;123870;-89
2022/05/19 06:45:08;;;;;;;4.80;1.87;;;22.60;54.60;;;23.40;38.57;99061.19;4987928;28;119683;-90
2022/05/19 06:47:36;;;;;;;1.70;1.43;;;22.70;54.60;;;23.51;38.41;99057.25;4968603;28;119472;-90
2022/05/19 06:50:05;;;;;;;2.20;1.70;;;22.70;54.60;;;23.63;38.49;99056.09;4960231;28;124201;-88
2022/05/19 06:52:33;;;;;;;3.67;1.83;;;22.80;54.70;;;23.76;38.41;99051.78;4989717;28;122991;-84
2022/05/19 06:55:02;;;;;;;1.60;1.50;;;23.00;54.90;;;23.87;38.38;99051.03;4964766;28;119140;-86
2022/05/19 06:57:31;;;;;;;2.20;2.00;;;23.10;54.90;;;24.00;38.27;99052.28;4947654;28;119704;-87
2022/05/19 06:59:58;;;;;;;1.87;1.67;;;23.20;54.80;;;24.11;38.24;99061.59;4959763;28;124368;-84
2022/05/19 07:02:25;;;;;;;2.93;2.23;;;23.30;54.90;;;24.24;37.77;99054.38;4965278;28;123256;-85
2022/05/19 07:04:53;;;;;;;2.00;1.80;;;23.40;54.70;;;24.33;37.93;99061.69;4982941;28;119220;-88
2022/05/19 07:07:20;;;;;;;3.10;1.83;;;23.50;54.60;;;24.38;37.58;99058.47;4964197;28;119044;-87
2022/05/19 07:09:47;;;;;;;3.70;2.10;;;23.60;54.30;;;24.39;37.67;99054.41;4980798;28;124107;-88
2022/05/19 07:12:23;;;;;;;4.17;1.80;;;23.60;54.00;;;24.42;37.44;99050.78;4954357;28;123915;-89
2022/05/19 07:14:51;;;;;;;3.23;2.20;;;23.80;53.90;;;24.48;37.03;99045.63;4979941;28;118215;-87
2022/05/19 07:17:19;;;;;;;2.87;2.30;;;23.80;53.70;;;24.56;37.08;99050.88;4965942;28;118547;-87
2022/05/19 07:22:34;;;;;;;3.60;2.10;;;23.90;53.60;;;24.73;36.91;99062.59;4974862;28;124363;-90
2022/05/19 07:25:06;;;;;;;2.53;2.10;;;24.00;53.50;;;24.82;36.78;99060.19;4964393;28;119716;-90
2022/05/19 07:27:33;;;;;;;2.50;2.10;;;24.10;53.50;;;24.88;36.82;99059.41;4980321;28;120150;-89
2022/05/19 07:30:01;;;;;;;2.43;2.00;;;24.20;53.40;;;24.95;36.76;99052.13;4983521;28;124627;-89
2022/05/19 07:32:46;;;;;;;2.10;1.90;;;24.20;53.30;;;25.03;36.55;99059.41;4957459;28;123397;-90
2022/05/19 07:35:16;;;;;;;5.80;2.37;;;24.30;53.10;;;25.04;36.51;99044.88;4982287;28;119291;-91
2022/05/19 07:37:43;;;;;;;3.10;2.20;;;24.40;53.10;;;25.12;36.48;99048.50;4964651;28;118216;-91
2022/05/19 07:40:11;;;;;;;2.20;1.90;;;24.40;53.10;;;25.21;36.28;99050.94;4982085;28;123877;-90
2022/05/19 07:42:38;;;;;;;2.47;1.87;;;24.50;53.00;;;25.30;36.03;99040.81;4972990;28;122656;-87
2022/05/19 07:45:05;;;;;;;3.03;1.70;;;24.60;53.00;;;25.39;36.04;99040.41;4970004;28;119324;-87
2022/05/19 07:47:33;;;;;;;2.60;2.10;;;24.60;52.90;;;25.49;36.33;99045.22;4972980;28;119304;-90
2022/05/19 07:50:00;;;;;;;2.70;2.00;;;24.70;53.00;;;25.56;35.98;99041.59;4973151;28;124021;-89
2022/05/19 07:52:27;;;;;;;2.20;2.00;;;24.80;52.80;;;25.65;36.22;99053.28;4973464;28;123719;-91
2022/05/19 07:54:54;;;;;;;3.00;2.10;;;24.90;52.80;;;25.70;36.03;99052.06;4971004;28;118459;-93
2022/05/19 07:57:22;;;;;;;2.47;2.00;;;24.90;52.60;;;25.72;35.99;99050.44;4972188;28;117173;-90
2022/05/19 07:59:51;;;;;;;2.60;2.20;;;25.00;52.70;;;25.77;36.09;99052.84;4965891;28;123301;-92
2022/05/19 08:02:17;;;;;;;3.53;2.23;;;25.10;52.70;;;25.81;36.13;99050.00;4986011;28;123608;-90
2022/05/19 08:04:49;;;;;;;2.50;2.03;;;25.20;52.70;;;25.86;35.75;99038.28;4988451;28;119309;-92
2022/05/19 08:11:05;;;;;;;2.90;2.30;;;25.30;52.70;;;25.91;35.89;99045.56;4989643;28;124262;-90
2022/05/19 08:16:17;;;;;;;3.43;2.17;;;25.30;52.70;;;26.02;36.19;99034.19;4999473;28;121369;-86
2022/05/19 08:18:43;;;;;;;2.53;2.33;;;25.40;52.80;;;26.11;36.44;99034.53;4981400;28;119943;-86
2022/05/19 08:21:11;;;;;;;2.00;1.80;;;25.40;52.80;;;26.18;35.92;99038.16;4964693;28;124425;-87
2022/05/19 08:23:43;;;;;;;2.80;2.03;;;25.50;52.80;;;26.25;36.09;99043.00;4955427;28;122845;-83
2022/05/19 08:26:10;;;;;;;2.40;2.03;;;25.60;52.80;;;26.32;36.22;99040.09;4982536;28;119257;-85
2022/05/19 08:28:41;;;;;;;2.70;1.83;;;25.70;52.80;;;26.39;36.22;99036.44;4996063;28;119065;-86
2022/05/19 08:31:21;;;;;;;2.90;2.10;;;25.70;52.80;;;26.44;35.65;99033.97;4964274;28;124481;-86
2022/05/19 08:33:52;;;;;;;2.73;2.30;;;25.80;52.70;;;26.52;35.61;99033.94;4962619;28;124494;-86
2022/05/19 08:36:19;;;;;;;2.00;1.80;;;25.80;52.70;;;26.59;36.06;99039.56;4963283;28;119254;-86
2022/05/19 08:38:47;;;;;;;2.90;2.60;;;25.90;52.70;;;26.66;35.91;99037.50;4985898;28;119017;-85
2022/05/19 08:41:27;;;;;;;3.20;2.90;;;26.00;52.60;;;26.71;35.65;99035.47;4979910;28;123947;-87
2022/05/19 08:44:16;;;;;;;2.77;2.50;;;26.00;52.50;;;26.76;35.78;99030.16;4966517;28;123974;-86
2022/05/19 08:46:47;;;;;;;3.73;2.17;;;26.10;52.50;;;26.85;35.82;99029.66;4968072;28;119220;-85
2022/05/19 08:49:20;;;;;;;2.77;2.03;;;26.20;52.60;;;26.94;35.68;99032.81;4967824;28;118559;-85
2022/05/19 08:52:12;;;;;;;2.40;2.20;;;26.20;52.60;;;27.03;35.61;99016.16;4983368;28;124582;-85
2022/05/19 08:54:42;;;;;;;3.13;1.77;;;26.30;52.50;;;27.12;35.35;99007.16;4967753;28;123902;-86
2022/05/19 08:57:30;;;;;;;1.93;1.80;;;26.40;52.50;;;27.22;35.17;99016.81;4985761;28;119174;-87
2022/05/19 09:00:14;;;;;;;2.20;1.97;;;26.50;52.40;;;27.29;35.01;99014.69;4952277;28;118547;-85
2022/05/19 09:02:57;;;;;;;2.30;1.97;;;26.60;52.40;;;27.35;35.05;99005.72;4955306;28;123933;-86
2022/05/19 09:06:06;;;;;;;2.10;1.90;;;26.70;52.20;;;27.37;34.84;99014.63;4966493;28;123795;-85
2022/05/19 09:08:55;;;;;;;3.53;2.27;;;26.70;51.90;;;27.42;35.16;99017.03;4969990;28;120738;-85
2022/05/19 09:11:38;;;;;;;2.30;2.10;;;26.80;51.90;;;27.51;34.76;99008.81;4982851;28;119303;-85
2022/05/19 09:14:27;;;;;;;2.00;1.80;;;26.80;51.90;;;27.60;34.95;99011.97;4969233;28;124232;-85
2022/05/19 09:17:07;;;;;;;1.97;1.67;;;26.90;51.90;;;27.69;34.70;99000.09;4983209;28;124518;-86
2022/05/19 09:19:44;;;;;;;3.03;2.40;;;27.00;51.90;;;27.77;35.00;98991.06;4961079;28;119042;-84
2022/05/19 09:22:19;;;;;;;2.27;2.00;;;27.10;52.00;;;27.87;34.77;98991.41;4988685;28;118963;-86
2022/05/19 09:24:49;;;;;;;2.30;2.10;;;27.20;51.90;;;27.95;34.65;98999.41;4999752;28;123852;-85
2022/05/19 09:27:19;;;;;;;3.50;2.20;;;27.20;51.80;;;28.04;34.80;98998.06;4999278;28;122753;-85
2022/05/19 09:29:50;;;;;;;2.40;2.20;;;27.30;51.70;;;28.10;34.49;98994.34;4982345;28;119359;-85
2022/05/19 09:32:34;;;;;;;3.70;2.40;;;27.40;51.50;;;28.15;34.51;98991.00;4965612;28;119610;-87
2022/05/19 09:35:28;;;;;;;2.60;2.00;;;27.50;51.60;;;28.22;34.67;98986.47;4968331;28;124742;-86
2022/05/19 09:38:17;;;;;;;2.70;2.00;;;27.50;51.40;;;28.30;34.37;98982.28;4962732;28;124506;-84
2022/05/19 09:40:47;;;;;;;2.90;2.40;;;27.60;51.50;;;28.40;34.23;98998.38;4978437;28;119543;-84
2022/05/19 09:43:27;;;;;;;2.30;2.10;;;27.70;51.40;;;28.45;34.11;98999.97;4985974;28;119060;-85
2022/05/19 09:46:09;;;;;;;1.60;1.50;;;27.80;51.10;;;28.50;33.89;99003.13;4952631;28;124035;-86
2022/05/19 09:48:47;;;;;;;2.73;1.97;;;27.90;50.90;;;28.53;33.82;98996.59;4965905;28;123575;-85
2022/05/19 09:51:17;;;;;;;5.07;2.10;;;27.90;50.80;;;28.60;33.97;99005.00;4978003;28;119489;-85
2022/05/19 09:53:54;;;;;;;3.03;2.00;;;27.90;50.80;;;28.68;33.95;99010.59;4964004;28;118898;-86
2022/05/19 09:56:25;;;;;;;1.80;1.70;;;28.00;50.80;;;28.73;33.97;99008.06;4963052;28;123609;-88
2022/05/19 09:59:17;;;;;;;2.17;1.97;;;28.00;50.80;;;28.78;34.04;99012.47;4986600;28;124763;-86
2022/05/19 10:01:47;;;;;;;3.10;2.40;;;28.10;51.00;;;28.85;34.30;99007.47;4955642;28;119293;-84
2022/05/19 10:04:42;;;;;;;3.83;3.03;;;28.20;51.30;;;28.87;34.11;99004.16;4985337;28;120393;-88
2022/05/19 10:07:36;;;;;;;2.90;2.50;;;28.20;51.20;;;28.93;33.83;99010.16;4998437;28;123212;-85
2022/05/19 10:10:25;;;;;;;3.70;2.37;;;28.30;51.00;;;28.98;34.13;99013.31;4975670;28;123075;-86
2022/05/19 10:12:57;;;;;;;3.53;2.93;;;28.40;51.10;;;29.05;34.26;99004.72;4965703;28;119411;-83
2022/05/19 10:15:33;;;;;;;7.90;3.13;;;28.40;51.10;;;29.13;33.99;99010.28;4980692;28;118570;-85
2022/05/19 10:18:41;;;;;;;8.40;2.83;;;28.50;51.20;;;29.16;34.06;98995.19;4949472;28;124404;-85
2022/05/19 10:22:00;;;;;;;4.10;2.80;;;28.60;51.30;;;29.20;34.19;98990.22;4950399;28;123603;-84
2022/05/19 10:24:43;;;;;;;3.77;3.07;;;28.60;51.20;;;29.27;34.07;98995.78;4968888;28;119512;-85
2022/05/19 10:37:25;;;;;;;6.03;2.87;;;28.90;51.00;;;29.53;33.73;98988.38;4986733;28;120000;-86
2022/05/19 10:40:07;;;;;;;7.63;2.50;;;28.90;51.00;;;29.59;34.28;98988.69;4980199;28;119624;-87
2022/05/19 10:42:58;;;;;;;3.13;2.60;;;29.00;51.10;;;29.63;33.74;98981.66;4967387;28;124280;-86
2022/05/19 10:45:37;;;;;;;4.00;2.90;;;29.10;50.90;;;29.66;33.72;98980.84;4994983;28;123816;-85
2022/05/19 10:48:56;;;;;;;4.80;3.77;;;29.10;50.60;;;29.67;33.80;98970.25;4951778;28;119769;-87
2022/05/19 10:51:25;;;;;;;5.33;2.90;;;29.20;50.40;;;29.77;33.73;98974.09;4995145;28;119330;-86
2022/05/19 10:54:19;;;;;;;2.70;2.33;;;29.20;50.50;;;29.82;33.51;98962.19;4966378;28;123479;-86